Time;durP1;ratioP1;P1;durP2;ratioP2;P2;SDS_P1;SDS_P2;PMS_P1;PMS_P2;Temp;Humidity;BMP_temperature;BMP_pressure;BME280_temperature;BME280_humidity;BME280_pressure;Samples;Min_cycle;Max_cycle;Signal;HPM_P1;HPM_P2
2022/02/14 00:02:07;;;;;;;48.58;17.05;;;;;;;-0.65;66.88;99927.16;1689882;84;21078;-80
2022/02/14 00:04:33;;;;;;;52.15;19.27;;;;;;;-0.70;66.33;99932.52;1697927;84;21067;-80
2022/02/14 00:07:00;;;;;;;55.50;22.80;;;;;;;-0.76;66.50;99930.61;1679385;85;21021;-80
2022/02/14 00:09:26;;;;;;;94.62;30.85;;;;;;;-0.83;66.67;99924.45;1694288;84;21520;-80
2022/02/14 00:11:53;;;;;;;60.60;23.95;;;;;;;-0.86;65.29;99926.88;1680381;84;21063;-80
2022/02/14 00:14:24;;;;;;;47.62;19.65;;;;;;;-0.93;66.27;99931.75;1672315;83;21141;-79
2022/02/14 00:16:50;;;;;;;49.15;20.85;;;;;;;-1.01;66.63;99927.65;1681640;83;20988;-79
2022/02/14 00:19:16;;;;;;;46.83;18.30;;;;;;;-1.05;67.87;99930.91;1684749;83;21523;-80
2022/02/14 00:21:43;;;;;;;42.80;19.10;;;;;;;-1.10;65.47;99926.91;1687078;83;21035;-80
2022/02/14 00:24:09;;;;;;;52.70;19.35;;;;;;;-1.17;66.47;99927.52;1675581;83;21043;-79
2022/02/14 00:26:37;;;;;;;51.02;21.70;;;;;;;-1.17;68.09;99929.18;1692775;84;21460;-80
2022/02/14 00:29:04;;;;;;;53.05;20.60;;;;;;;-1.20;68.23;99933.78;1692676;83;20976;-78
2022/02/14 00:31:30;;;;;;;55.40;23.25;;;;;;;-1.24;67.47;99925.14;1727649;83;21074;-79
2022/02/14 00:33:57;;;;;;;59.53;20.72;;;;;;;-1.23;67.72;99924.76;1728453;81;21002;-77
2022/02/14 00:36:25;;;;;;;52.15;19.05;;;;;;;-1.24;68.85;99925.55;1742806;81;21217;-80
2022/02/14 00:38:52;;;;;;;55.05;20.05;;;;;;;-1.24;68.40;99916.63;1718995;82;21045;-78
2022/02/14 00:41:18;;;;;;;57.00;20.43;;;;;;;-1.23;68.12;99918.38;1727910;81;20999;-80
2022/02/14 00:43:46;;;;;;;42.75;18.05;;;;;;;-1.22;69.11;99914.99;1725265;82;21023;-80
2022/02/14 00:46:12;;;;;;;46.25;18.00;;;;;;;-1.20;69.28;99914.22;1719752;82;20978;-80
2022/02/14 00:48:39;;;;;;;48.70;16.75;;;;;;;-1.19;68.93;99904.91;1725402;82;20999;-80
2022/02/14 00:51:05;;;;;;;41.23;17.32;;;;;;;-1.18;69.36;99908.32;1719805;82;21001;-80
2022/02/14 00:53:31;;;;;;;54.50;19.12;;;;;;;-1.18;69.09;99907.91;1714459;83;21006;-80
2022/02/14 00:55:58;;;;;;;49.25;18.82;;;;;;;-1.21;68.22;99898.89;1667485;85;21574;-80
2022/02/14 00:58:25;;;;;;;46.58;18.23;;;;;;;-1.25;68.97;99900.88;1680966;85;21075;-79
2022/02/14 01:00:51;;;;;;;50.78;18.00;;;;;;;-1.28;68.76;99902.02;1667294;85;21014;-80
2022/02/14 01:03:18;;;;;;;54.20;19.87;;;;;;;-1.34;68.00;99897.98;1701869;83;21005;-78
2022/02/14 01:05:45;;;;;;;43.38;18.27;;;;;;;-1.35;68.77;99900.95;1718915;82;21019;-79
2022/02/14 01:08:11;;;;;;;42.45;17.75;;;;;;;-1.35;69.38;99895.84;1727131;81;21534;-80
2022/02/14 01:10:38;;;;;;;41.13;18.07;;;;;;;-1.34;69.13;99899.26;1720846;82;21015;-80
2022/02/14 01:13:04;;;;;;;48.87;18.23;;;;;;;-1.36;69.55;99891.96;1725906;82;20983;-80
2022/02/14 01:15:31;;;;;;;43.00;17.00;;;;;;;-1.38;69.60;99880.84;1708269;83;20992;-80
2022/02/14 01:17:57;;;;;;;47.80;17.90;;;;;;;-1.41;69.36;99891.39;1702574;83;21003;-79
2022/02/14 01:20:24;;;;;;;38.80;15.58;;;;;;;-1.42;69.20;99879.85;1698522;83;20978;-79
2022/02/14 01:22:50;;;;;;;43.80;15.45;;;;;;;-1.46;69.46;99875.05;1734443;82;21193;-80
2022/02/14 01:25:17;;;;;;;37.65;17.12;;;;;;;-1.50;69.66;99874.47;1661292;86;21065;-79
2022/02/14 01:27:43;;;;;;;36.38;15.55;;;;;;;-1.52;69.88;99871.00;1708908;82;20993;-81
2022/02/14 01:30:11;;;;;;;43.28;16.02;;;;;;;-1.59;68.94;99860.14;1713745;83;21026;-82
2022/02/14 01:32:38;;;;;;;38.28;14.95;;;;;;;-1.62;69.44;99867.25;1725088;82;21016;-81
2022/02/14 01:35:07;;;;;;;43.83;16.02;;;;;;;-1.65;68.13;99867.54;1734391;83;20961;-78
2022/02/14 01:37:36;;;;;;;42.73;16.87;;;;;;;-1.67;69.20;99857.69;1717936;82;21007;-80
2022/02/14 01:40:03;;;;;;;46.40;18.82;;;;;;;-1.68;69.70;99863.20;1736208;82;20961;-79
2022/02/14 01:42:30;;;;;;;42.20;17.00;;;;;;;-1.71;69.63;99863.50;1723372;83;21032;-79
2022/02/14 01:44:56;;;;;;;46.20;16.67;;;;;;;-1.70;70.27;99860.15;1731682;83;21136;-78
2022/02/14 01:47:25;;;;;;;40.83;16.15;;;;;;;-1.68;70.70;99859.38;1722497;82;21004;-79
2022/02/14 01:49:53;;;;;;;45.40;17.62;;;;;;;-1.67;70.45;99854.77;1718874;83;21028;-80
2022/02/14 01:52:22;;;;;;;39.20;15.38;;;;;;;-1.64;71.02;99857.81;1719184;82;21115;-80
2022/02/14 01:54:50;;;;;;;43.38;17.48;;;;;;;-1.66;70.33;99847.56;1728803;83;21519;-78
2022/02/14 01:57:19;;;;;;;51.53;19.15;;;;;;;-1.69;70.52;99850.02;1719396;83;21578;-80
2022/02/14 01:59:47;;;;;;;47.78;16.93;;;;;;;-1.69;70.61;99844.91;1722853;82;21030;-80
2022/02/14 02:02:14;;;;;;;41.10;16.70;;;;;;;-1.71;70.58;99849.47;1716723;83;21015;-80
2022/02/14 02:04:45;;;;;;;45.58;18.30;;;;;;;-1.74;70.46;99838.77;1722175;83;21591;-78
2022/02/14 02:07:14;;;;;;;48.90;18.50;;;;;;;-1.75;70.77;99845.08;1718548;83;21508;-79
2022/02/14 02:09:45;;;;;;;44.48;18.27;;;;;;;-1.78;70.67;99846.27;1720462;83;21043;-79
2022/02/14 02:12:26;;;;;;;41.18;16.15;;;;;;;-1.80;70.33;99843.23;1721872;83;21551;-79
2022/02/14 02:14:59;;;;;;;39.30;14.60;;;;;;;-1.82;69.03;99841.45;1719498;83;21064;-79
2022/02/14 02:17:28;;;;;;;;;;;;;;;-1.83;70.92;99830.78;1743625;82;21124;-80
2022/02/14 02:19:55;;;;;;;40.88;15.70;;;;;;;-1.87;69.50;99835.30;1740148;82;20130;-80
2022/02/14 02:22:22;;;;;;;40.17;15.88;;;;;;;-1.94;70.25;99836.77;1703420;84;21042;-79
2022/02/14 02:24:52;;;;;;;37.60;14.53;;;;;;;-1.96;71.11;99837.12;1755955;81;21019;-79
2022/02/14 02:27:25;;;;;;;38.83;15.88;;;;;;;-1.97;71.33;99830.69;1756322;81;21054;-79
2022/02/14 02:29:59;;;;;;;35.78;16.02;;;;;;;-1.98;71.47;99828.97;1756364;82;20964;-78
2022/02/14 02:32:28;;;;;;;41.40;15.05;;;;;;;-2.01;71.05;99833.14;1755246;82;21569;-78
2022/02/14 02:34:55;;;;;;;41.20;14.40;;;;;;;-2.08;69.93;99832.84;1713296;83;21018;-80
2022/02/14 02:37:21;;;;;;;36.40;15.60;;;;;;;-2.07;71.77;99834.56;1730617;83;20988;-79
2022/02/14 02:39:48;;;;;;;38.25;16.15;;;;;;;-2.09;70.73;99828.17;1730544;82;20995;-79
2022/02/14 02:42:19;;;;;;;38.80;14.43;;;;;;;-2.09;71.61;99825.62;1730680;82;21492;-79
2022/02/14 02:44:46;;;;;;;43.30;16.20;;;;;;;-2.07;71.70;99826.92;1730615;82;21052;-80
2022/02/14 02:47:16;;;;;;;40.23;16.30;;;;;;;-2.08;71.98;99815.88;1730735;83;20987;-78
2022/02/14 02:49:44;;;;;;;41.63;16.82;;;;;;;-2.11;72.15;99819.98;1730586;82;21017;-79
2022/02/14 02:52:15;;;;;;;45.15;18.25;;;;;;;-2.10;71.27;99817.91;1725221;82;21028;-80
2022/02/14 02:54:42;;;;;;;51.68;17.60;;;;;;;-2.06;72.31;99817.21;1720720;83;21504;-79
2022/02/14 02:57:08;;;;;;;44.08;16.82;;;;;;;-2.02;72.21;99825.43;1720551;83;21697;-79
2022/02/14 02:59:36;;;;;;;41.45;16.10;;;;;;;-1.99;70.63;99829.34;1729947;82;21021;-78
2022/02/14 03:02:06;;;;;;;41.63;15.43;;;;;;;-1.98;70.52;99825.14;1725248;83;21047;-80
2022/02/14 03:04:33;;;;;;;43.23;16.62;;;;;;;-2.01;71.15;99822.05;1730569;83;21544;-80
2022/02/14 03:07:00;;;;;;;36.80;15.65;;;;;;;-1.97;72.09;99819.22;1730306;83;21007;-80
2022/02/14 03:09:27;;;;;;;37.48;15.48;;;;;;;-1.93;72.22;99819.41;1730296;83;21009;-79
2022/02/14 03:11:54;;;;;;;42.33;17.50;;;;;;;-1.88;72.44;99822.11;1724553;83;20999;-79
2022/02/14 03:14:21;;;;;;;38.08;15.75;;;;;;;-1.83;70.79;99818.92;1729818;82;21001;-78
2022/02/14 03:16:47;;;;;;;46.98;19.60;;;;;;;-1.77;72.24;99816.12;1725469;82;21239;-80
2022/02/14 03:19:14;;;;;;;38.90;16.07;;;;;;;-1.71;71.97;99819.77;1724210;82;21804;-79
2022/02/14 03:21:41;;;;;;;46.85;17.00;;;;;;;-1.64;72.01;99808.09;1724778;83;21020;-80
2022/02/14 03:24:07;;;;;;;41.02;15.23;;;;;;;-1.58;71.66;99812.55;1714475;83;21024;-80
2022/02/14 03:26:34;;;;;;;43.28;17.77;;;;;;;-1.53;71.87;99808.46;1724852;82;21497;-80
2022/02/14 03:29:00;;;;;;;38.38;15.05;;;;;;;-1.47;71.64;99813.80;1717604;83;21044;-80
2022/02/14 03:31:27;;;;;;;41.83;17.02;;;;;;;-1.46;71.18;99806.18;1719412;81;21006;-79
2022/02/14 03:33:54;;;;;;;47.10;18.15;;;;;;;-1.43;70.54;99807.58;1724854;83;20964;-79
2022/02/14 03:36:22;;;;;;;39.95;15.65;;;;;;;-1.42;71.25;99799.51;1724962;83;20984;-78
2022/02/14 03:38:50;;;;;;;42.90;17.40;;;;;;;-1.38;71.19;99814.10;1721613;82;21173;-79
2022/02/14 03:41:17;;;;;;;42.43;17.30;;;;;;;-1.34;71.61;99798.08;1696297;84;21020;-80
2022/02/14 03:43:43;;;;;;;34.85;14.58;;;;;;;-1.30;71.25;99801.61;1717010;83;21599;-80
2022/02/14 03:46:10;;;;;;;42.58;16.07;;;;;;;-1.28;71.20;99804.66;1725257;83;21014;-79
2022/02/14 03:48:37;;;;;;;38.95;15.25;;;;;;;-1.29;70.92;99800.81;1719606;82;21046;-79
2022/02/14 03:51:03;;;;;;;37.28;16.15;;;;;;;-1.31;70.56;99800.75;1724974;82;21009;-80
2022/02/14 03:53:30;;;;;;;37.55;16.10;;;;;;;-1.43;69.59;99810.55;1724645;82;21041;-79
2022/02/14 03:55:56;;;;;;;44.13;17.37;;;;;;;-1.52;69.99;99807.66;1714984;82;21061;-78
2022/02/14 03:58:23;;;;;;;39.67;15.78;;;;;;;-1.55;71.24;99812.26;1724776;83;21076;-79
2022/02/14 04:00:49;;;;;;;39.42;14.93;;;;;;;-1.54;71.30;99806.33;1718959;81;21908;-80
2022/02/14 04:03:16;;;;;;;41.80;15.23;;;;;;;-1.51;71.71;99812.82;1724954;83;21016;-79
2022/02/14 04:05:43;;;;;;;33.40;14.70;;;;;;;-1.48;71.40;99804.40;1724681;83;21043;-79
2022/02/14 04:08:09;;;;;;;37.25;15.43;;;;;;;-1.44;71.71;99804.55;1724470;83;21511;-80
2022/02/14 04:10:36;;;;;;;43.42;17.82;;;;;;;-1.40;71.42;99800.01;1724860;81;20992;-79
2022/02/14 04:13:02;;;;;;;41.23;18.50;;;;;;;-1.34;71.39;99800.63;1724917;83;20992;-80
2022/02/14 04:15:29;;;;;;;48.48;17.00;;;;;;;-1.30;71.40;99805.02;1724805;81;21479;-82
2022/02/14 04:17:56;;;;;;;38.13;14.43;;;;;;;-1.27;71.01;99796.63;1728679;82;20976;-82
2022/02/14 04:20:22;;;;;;;51.53;19.82;;;;;;;-1.31;70.85;99797.34;1724912;82;22085;-80
2022/02/14 04:22:49;;;;;;;42.48;17.37;;;;;;;-1.33;70.27;99799.83;1724025;82;21004;-79
2022/02/14 04:25:16;;;;;;;67.67;27.62;;;;;;;-1.39;70.13;99797.08;1721523;82;20995;-78
2022/02/14 04:27:43;;;;;;;56.42;21.82;;;;;;;-1.42;71.25;99789.30;1730565;82;21394;-79
2022/02/14 04:30:13;;;;;;;49.67;18.90;;;;;;;-1.46;69.70;99788.33;1727408;82;21448;-78
2022/02/14 04:32:42;;;;;;;71.85;30.85;;;;;;;-1.51;69.68;99796.63;1725710;82;21049;-78
2022/02/14 04:35:10;;;;;;;48.02;21.07;;;;;;;-1.54;70.42;99787.20;1724288;82;21493;-79
2022/02/14 04:37:36;;;;;;;44.90;15.98;;;;;;;-1.58;71.23;99785.36;1730872;82;21088;-78
2022/02/14 04:40:05;;;;;;;53.15;17.98;;;;;;;-1.56;72.45;99785.00;1724301;83;21057;-78
2022/02/14 04:42:32;;;;;;;43.33;16.23;;;;;;;-1.52;72.57;99792.36;1725624;82;21017;-80
2022/02/14 04:44:59;;;;;;;42.50;17.23;;;;;;;-1.52;71.86;99774.09;1722058;82;21059;-78
2022/02/14 04:47:25;;;;;;;43.00;18.95;;;;;;;-1.51;71.30;99773.30;1721410;82;21019;-79
2022/02/14 04:49:51;;;;;;;35.98;16.75;;;;;;;-1.54;70.89;99779.55;1697564;82;21020;-80
2022/02/14 04:52:18;;;;;;;37.48;16.48;;;;;;;-1.56;71.53;99771.40;1713006;83;20987;-80
2022/02/14 04:54:45;;;;;;;40.38;15.85;;;;;;;-1.59;72.49;99767.06;1673272;84;21527;-79
2022/02/14 04:57:13;;;;;;;40.73;17.05;;;;;;;-1.58;72.17;99766.66;1690375;83;21186;-79
2022/02/14 04:59:40;;;;;;;36.30;17.75;;;;;;;-1.56;71.67;99781.59;1663746;86;21469;-78
2022/02/14 05:02:06;;;;;;;46.15;18.25;;;;;;;-1.55;72.23;99779.11;1665150;86;21471;-78
2022/02/14 05:04:33;;;;;;;54.98;21.60;;;;;;;-1.53;72.17;99774.03;1664242;86;21041;-80
2022/02/14 05:06:59;;;;;;;60.90;22.15;;;;;;;-1.51;72.14;99773.30;1665021;85;20972;-78
2022/02/14 05:09:25;;;;;;;52.78;20.57;;;;;;;-1.49;72.07;99776.77;1664840;85;21004;-79
2022/02/14 05:11:53;;;;;;;55.85;23.67;;;;;;;-1.48;71.98;99778.90;1642899;85;21001;-80
2022/02/14 05:14:20;;;;;;;50.95;22.05;;;;;;;-1.48;72.07;99781.45;1660413;86;21017;-80
2022/02/14 05:16:47;;;;;;;65.55;22.02;;;;;;;-1.50;72.01;99780.53;1685006;84;21145;-80
2022/02/14 05:19:13;;;;;;;51.68;19.50;;;;;;;-1.54;72.55;99783.38;1691403;84;21043;-79
2022/02/14 05:21:40;;;;;;;49.60;18.05;;;;;;;-1.56;72.19;99785.00;1671492;85;21009;-79
2022/02/14 05:24:06;;;;;;;46.92;19.30;;;;;;;-1.57;72.39;99784.56;1665774;85;21604;-80
2022/02/14 05:26:33;;;;;;;51.37;20.17;;;;;;;-1.57;72.46;99788.39;1693778;84;21059;-80
2022/02/14 05:28:59;;;;;;;70.22;25.40;;;;;;;-1.59;72.49;99786.20;1690203;84;21057;-79
2022/02/14 05:31:26;;;;;;;69.80;26.02;;;;;;;-1.63;72.28;99786.91;1687306;84;21505;-80
2022/02/14 05:33:53;;;;;;;61.23;24.25;;;;;;;-1.68;71.59;99793.52;1659447;84;21023;-79
2022/02/14 05:36:20;;;;;;;66.75;22.95;;;;;;;-1.77;71.06;99790.63;1656782;85;21044;-80
2022/02/14 05:38:47;;;;;;;57.62;19.62;;;;;;;-1.81;71.76;99798.18;1653073;85;21586;-79
2022/02/14 05:41:14;;;;;;;69.05;20.05;;;;;;;-1.86;72.01;99793.31;1681503;85;21007;-79
2022/02/14 05:43:41;;;;;;;62.95;22.87;;;;;;;-1.92;72.18;99800.73;1679855;85;21031;-80
2022/02/14 05:46:14;;;;;;;114.15;32.35;;;;;;;-1.91;72.37;99804.14;1672041;85;21068;-78
2022/02/14 05:48:43;;;;;;;106.60;32.98;;;;;;;-1.96;71.58;99809.09;1677310;85;21031;-80
2022/02/14 05:51:11;;;;;;;114.55;36.55;;;;;;;-2.05;72.07;99792.17;1693178;84;21030;-79
2022/02/14 05:53:38;;;;;;;97.22;33.63;;;;;;;-1.99;72.11;99814.05;1672295;85;21023;-79
2022/02/14 05:56:07;;;;;;;74.27;27.25;;;;;;;-1.98;72.44;99805.62;1688450;84;21027;-80
2022/02/14 05:58:34;;;;;;;66.82;26.30;;;;;;;-1.96;72.75;99811.64;1686843;84;21020;-80
2022/02/14 06:01:01;;;;;;;72.40;27.65;;;;;;;-1.92;73.43;99824.95;1684888;85;20969;-79
2022/02/14 06:03:28;;;;;;;156.18;56.65;;;;;;;-1.90;73.23;99822.05;1689001;85;21015;-80
2022/02/14 06:05:55;;;;;;;143.22;45.83;;;;;;;-1.87;73.15;99823.83;1691099;84;21102;-79
2022/02/14 06:08:21;;;;;;;81.57;29.80;;;;;;;-1.86;73.52;99819.21;1688230;84;21124;-80
2022/02/14 06:10:49;;;;;;;56.60;22.45;;;;;;;-1.83;73.18;99829.12;1679825;85;21007;-80
2022/02/14 06:13:16;;;;;;;56.10;23.52;;;;;;;-1.84;72.62;99826.09;1670095;85;21414;-80
2022/02/14 06:15:43;;;;;;;50.95;21.45;;;;;;;-1.81;72.92;99829.15;1679624;85;21613;-80
2022/02/14 06:18:10;;;;;;;50.45;21.27;;;;;;;-1.78;72.55;99836.06;1677493;83;21072;-79
2022/02/14 06:20:38;;;;;;;53.25;21.60;;;;;;;-1.81;73.07;99833.87;1697819;83;21020;-82
2022/02/14 06:23:04;;;;;;;52.90;19.85;;;;;;;-1.78;72.91;99835.65;1690420;85;21138;-81
2022/02/14 06:25:31;;;;;;;51.25;19.40;;;;;;;-1.75;72.58;99828.13;1688419;84;21086;-83
2022/02/14 06:27:57;;;;;;;57.62;18.87;;;;;;;-1.77;73.07;99834.85;1738819;82;21035;-82
2022/02/14 06:30:30;;;;;;;47.60;20.43;;;;;;;-1.76;72.72;99835.30;1737549;82;20991;-83
2022/02/14 06:33:07;;;;;;;45.88;18.65;;;;;;;-1.77;72.49;99839.95;1693517;84;21111;-82
2022/02/14 06:35:37;;;;;;;40.80;18.70;;;;;;;-1.77;73.16;99838.67;1723701;83;21012;-82
2022/02/14 06:38:12;;;;;;;49.90;20.17;;;;;;;-1.75;73.14;99838.70;1735308;82;21012;-81
2022/02/14 06:40:45;;;;;;;42.70;17.98;;;;;;;-1.72;73.08;99839.69;1743654;82;21073;-82
2022/02/14 06:43:13;;;;;;;44.03;18.77;;;;;;;-1.70;72.24;99849.54;1720332;80;21043;-82
2022/02/14 06:45:40;;;;;;;44.50;16.55;;;;;;;-1.73;71.74;99837.08;1667038;81;21064;-81
2022/02/14 06:48:06;;;;;;;36.35;15.50;;;;;;;-1.70;71.88;99839.75;1688683;84;21076;-82
2022/02/14 06:50:33;;;;;;;50.95;18.02;;;;;;;-1.69;71.82;99840.20;1725547;83;21050;-81
2022/02/14 06:52:59;;;;;;;41.33;16.65;;;;;;;-1.70;72.56;99835.52;1717912;81;21360;-81
2022/02/14 06:55:26;;;;;;;46.25;18.60;;;;;;;-1.67;71.89;99833.47;1693340;83;21028;-80
2022/02/14 06:57:53;;;;;;;55.98;19.82;;;;;;;-1.69;72.94;99828.73;1686960;83;21032;-82
2022/02/14 07:00:19;;;;;;;50.25;17.92;;;;;;;-1.72;73.07;99833.32;1697908;83;21039;-82
2022/02/14 07:02:46;;;;;;;43.17;18.75;;;;;;;-1.74;73.27;99839.19;1716469;80;21116;-84
2022/02/14 07:05:15;;;;;;;42.90;17.12;;;;;;;-1.76;73.21;99839.13;1762418;79;21094;-76
2022/02/14 07:07:41;;;;;;;43.65;19.62;;;;;;;-1.74;72.55;99833.67;1753928;80;21156;-79
2022/02/14 07:10:08;;;;;;;49.05;18.30;;;;;;;-1.73;73.28;99837.08;1767001;80;21039;-77
2022/02/14 07:12:35;;;;;;;51.37;17.32;;;;;;;-1.70;73.25;99830.83;1763055;79;20999;-78
2022/02/14 07:15:04;;;;;;;56.75;20.50;;;;;;;-1.66;72.21;99837.77;1768914;80;21217;-81
2022/02/14 07:17:32;;;;;;;43.02;18.80;;;;;;;-1.68;72.70;99833.03;1765212;80;21270;-82
2022/02/14 07:19:59;;;;;;;43.25;17.52;;;;;;;-1.64;72.43;99838.70;1770864;80;20996;-80
2022/02/14 07:22:25;;;;;;;40.70;16.95;;;;;;;-1.60;71.95;99831.61;1763590;80;20983;-78
2022/02/14 07:24:52;;;;;;;55.35;20.05;;;;;;;-1.59;72.58;99824.44;1772045;80;20996;-79
2022/02/14 07:27:18;;;;;;;53.30;19.85;;;;;;;-1.55;72.70;99836.48;1763004;80;21089;-78
2022/02/14 07:29:46;;;;;;;40.03;15.85;;;;;;;-1.49;72.21;99830.32;1758649;80;21007;-81
2022/02/14 07:32:13;;;;;;;37.35;16.85;;;;;;;-1.43;72.65;99833.50;1718970;81;21010;-81
2022/02/14 07:34:40;;;;;;;41.98;16.93;;;;;;;-1.36;72.27;99825.64;1722636;80;21107;-82
2022/02/14 07:37:06;;;;;;;42.90;18.37;;;;;;;-1.30;71.64;99832.22;1715543;81;20989;-78
2022/02/14 07:39:34;;;;;;;42.53;17.42;;;;;;;-1.24;72.68;99829.88;1722315;82;21521;-78
2022/02/14 07:42:01;;;;;;;43.70;18.07;;;;;;;-1.14;72.07;99823.41;1722346;82;21012;-81
2022/02/14 07:44:28;;;;;;;32.13;15.10;;;;;;;-1.07;71.50;99823.66;1721320;82;21112;-82
2022/02/14 07:46:55;;;;;;;39.73;16.17;;;;;;;-0.99;71.13;99830.30;1718606;83;20996;-81
2022/02/14 07:49:23;;;;;;;44.95;16.17;;;;;;;-0.93;71.28;99824.54;1732199;82;21003;-80
2022/02/14 07:51:50;;;;;;;35.73;17.35;;;;;;;-0.83;71.29;99820.19;1715745;81;21273;-80
2022/02/14 07:54:17;;;;;;;36.40;17.10;;;;;;;-0.74;70.57;99824.29;1714309;82;20980;-81
2022/02/14 07:56:43;;;;;;;37.30;17.00;;;;;;;-0.67;70.46;99830.06;1719293;82;21021;-81
2022/02/14 07:59:09;;;;;;;47.50;15.93;;;;;;;-0.62;70.38;99827.25;1722823;81;21321;-82
2022/02/14 08:01:36;;;;;;;42.80;17.92;;;;;;;-0.53;70.05;99816.87;1722687;82;21061;-79
2022/02/14 08:04:05;;;;;;;39.10;15.72;;;;;;;-0.46;69.74;99821.33;1724741;82;20980;-78
2022/02/14 08:06:33;;;;;;;42.27;17.60;;;;;;;-0.36;69.64;99814.39;1722774;82;20973;-82
2022/02/14 08:09:00;;;;;;;36.53;14.68;;;;;;;-0.25;69.56;99806.65;1709121;80;21000;-80
2022/02/14 08:11:26;;;;;;;42.00;18.92;;;;;;;-0.13;69.46;99807.84;1718871;82;21031;-81
2022/02/14 08:13:53;;;;;;;32.50;14.47;;;;;;;-0.02;69.28;99805.16;1747075;79;21110;-82
2022/02/14 08:16:19;;;;;;;31.02;14.60;;;;;;;0.06;68.14;99796.44;1748891;78;21173;-81
2022/02/14 08:18:46;;;;;;;38.15;16.20;;;;;;;0.13;67.91;99800.91;1721778;81;20988;-81
2022/02/14 08:21:12;;;;;;;31.20;14.30;;;;;;;0.22;67.69;99794.79;1721891;83;20985;-83
2022/02/14 08:23:39;;;;;;;40.03;16.35;;;;;;;0.31;67.73;99796.72;1723210;82;21066;-81
2022/02/14 08:26:05;;;;;;;30.10;14.05;;;;;;;0.41;67.60;99791.02;1703410;82;21031;-79
2022/02/14 08:28:33;;;;;;;40.38;16.65;;;;;;;0.53;67.55;99786.65;1721987;82;21076;-80
2022/02/14 08:31:01;;;;;;;51.28;16.23;;;;;;;0.58;66.52;99787.23;1720407;82;21039;-80
2022/02/14 08:33:27;;;;;;;33.98;14.90;;;;;;;0.67;66.59;99779.33;1730897;81;20949;-81
2022/02/14 08:35:54;;;;;;;44.27;18.07;;;;;;;0.72;66.40;99782.47;1720554;82;20988;-82
2022/02/14 08:38:21;;;;;;;34.13;14.15;;;;;;;0.81;66.37;99780.97;1721390;82;20999;-83
2022/02/14 08:40:49;;;;;;;37.55;17.17;;;;;;;0.90;66.38;99777.36;1710321;82;21019;-84
2022/02/14 08:43:15;;;;;;;32.73;14.40;;;;;;;0.99;66.00;99776.29;1717989;80;21099;-86
2022/02/14 08:45:42;;;;;;;36.45;15.95;;;;;;;1.07;65.79;99773.50;1731554;81;21002;-84
2022/02/14 08:48:09;;;;;;;31.00;14.30;;;;;;;1.16;65.02;99775.43;1719744;81;21054;-81
2022/02/14 08:53:39;;;;;;;32.20;13.35;;;;;;;1.34;64.85;99767.30;1659959;82;21091;-81
2022/02/14 08:56:07;;;;;;;29.82;12.68;;;;;;;1.46;64.55;99762.88;1705041;82;20951;-82
2022/02/14 08:58:37;;;;;;;27.07;12.28;;;;;;;1.56;64.34;99759.68;1715303;82;21049;-83
2022/02/14 09:01:04;;;;;;;33.48;13.93;;;;;;;1.65;64.62;99761.56;1713359;82;21046;-82
2022/02/14 09:03:31;;;;;;;28.20;12.25;;;;;;;1.71;63.90;99758.73;1723692;82;21016;-84
2022/02/14 09:05:58;;;;;;;33.28;14.05;;;;;;;1.75;64.00;99742.58;1772697;80;21210;-83
2022/02/14 09:08:26;;;;;;;32.73;12.50;;;;;;;1.73;64.04;99726.30;1767853;80;21009;-85
2022/02/14 09:10:56;;;;;;;32.10;13.03;;;;;;;1.98;63.75;99748.16;1777311;79;21267;-83
2022/02/14 09:13:22;;;;;;;32.67;13.55;;;;;;;2.07;62.36;99751.34;1748136;80;21007;-83
2022/02/14 09:15:49;;;;;;;33.18;14.03;;;;;;;2.15;62.30;99758.77;1714702;82;21252;-85
2022/02/14 09:18:15;;;;;;;34.92;13.30;;;;;;;2.22;60.91;99753.33;1722375;82;21019;-83
2022/02/14 09:20:42;;;;;;;34.20;14.18;;;;;;;2.32;62.56;99754.36;1711738;82;21093;-83
2022/02/14 09:23:09;;;;;;;23.05;10.55;;;;;;;2.40;61.43;99752.80;1712950;82;20968;-81
2022/02/14 09:25:35;;;;;;;27.95;11.83;;;;;;;2.49;61.81;99746.56;1713230;82;21004;-83
2022/02/14 09:28:02;;;;;;;27.50;11.73;;;;;;;2.57;60.97;99747.56;1724208;80;20969;-84
2022/02/14 09:30:30;;;;;;;21.73;8.20;;;;;;;2.64;60.09;99752.38;1707098;82;21226;-83
2022/02/14 09:32:58;;;;;;;19.10;8.05;;;;;;;2.72;61.03;99748.23;1718281;82;21048;-84
2022/02/14 09:35:27;;;;;;;15.72;7.62;;;;;;;2.76;59.82;99741.45;1716341;83;20953;-82
2022/02/14 09:38:00;;;;;;;33.30;11.68;;;;;;;2.81;58.44;99741.12;1714364;82;20993;-82
2022/02/14 09:40:29;;;;;;;22.37;8.83;;;;;;;2.91;59.09;99740.42;1719945;82;21049;-89
2022/02/14 09:42:59;;;;;;;21.55;9.25;;;;;;;2.99;59.01;99733.70;1719153;82;20940;-81
2022/02/14 09:45:28;;;;;;;22.40;8.43;;;;;;;3.07;58.66;99730.41;1713337;82;21016;-84
2022/02/14 09:48:02;;;;;;;31.25;12.78;;;;;;;3.12;58.28;99723.61;1716431;82;21016;-84
2022/02/14 09:50:31;;;;;;;20.80;9.38;;;;;;;3.19;56.13;99725.44;1709835;82;21016;-83
2022/02/14 09:52:58;;;;;;;27.60;11.40;;;;;;;3.29;57.90;99711.87;1696413;83;21047;-81
2022/02/14 09:55:25;;;;;;;22.13;9.18;;;;;;;3.39;58.21;99709.02;1700971;82;21050;-83
2022/02/14 09:57:52;;;;;;;20.10;9.00;;;;;;;3.54;57.57;99710.91;1696066;83;21089;-81
2022/02/14 10:00:19;;;;;;;23.65;9.80;;;;;;;3.55;56.41;99703.23;1697829;83;21000;-79
2022/02/14 10:02:46;;;;;;;26.90;12.05;;;;;;;3.61;57.56;99694.73;1695104;82;20978;-84
2022/02/14 10:05:21;;;;;;;23.77;9.20;;;;;;;3.62;55.44;99699.45;1748691;81;21122;-82
2022/02/14 10:07:50;;;;;;;22.45;10.88;;;;;;;3.67;56.22;99692.67;1746398;81;21018;-85
2022/02/14 10:10:25;;;;;;;29.98;10.70;;;;;;;3.71;55.58;99690.14;1743526;81;21054;-84
2022/02/14 10:12:55;;;;;;;28.73;8.18;;;;;;;3.77;56.07;99681.21;1747934;80;21229;-84
2022/02/14 10:15:24;;;;;;;22.25;9.63;;;;;;;3.83;54.27;99675.28;1749639;81;21040;-79
2022/02/14 10:18:01;;;;;;;35.40;9.53;;;;;;;3.88;53.61;99672.35;1694734;81;21039;-79
2022/02/14 10:20:31;;;;;;;22.45;9.80;;;;;;;3.97;56.26;99672.43;1753355;81;21572;-79
2022/02/14 10:23:05;;;;;;;25.05;9.75;;;;;;;4.05;54.86;99666.08;1744301;81;20980;-83
2022/02/14 10:25:40;;;;;;;17.37;9.28;;;;;;;4.12;56.06;99666.59;1750629;81;20962;-85
2022/02/14 10:28:20;;;;;;;22.55;9.25;;;;;;;4.21;55.78;99666.25;1741606;81;21209;-84
2022/02/14 10:31:04;;;;;;;19.40;9.30;;;;;;;4.21;56.12;99664.96;1747152;81;21050;-85
2022/02/14 10:33:57;;;;;;;17.82;8.63;;;;;;;4.22;55.53;99652.11;1711678;81;21024;-83
2022/02/14 10:36:31;;;;;;;22.80;9.93;;;;;;;4.31;55.15;99645.74;1736960;81;20980;-84
2022/02/14 10:39:08;;;;;;;21.82;9.75;;;;;;;4.44;53.33;99642.87;1726279;82;21130;-83
2022/02/14 10:41:34;;;;;;;21.68;11.12;;;;;;;4.55;52.65;99637.36;1732448;82;21132;-84
2022/02/14 10:44:12;;;;;;;20.92;10.20;;;;;;;4.66;54.81;99635.32;1734323;81;20995;-86
2022/02/14 10:46:41;;;;;;;19.75;9.88;;;;;;;4.77;54.50;99635.84;1739091;80;21553;-91
2022/02/14 10:49:09;;;;;;;21.52;9.43;;;;;;;4.86;53.60;99627.30;1737097;80;20983;-84
2022/02/14 10:51:36;;;;;;;22.27;10.05;;;;;;;4.95;53.81;99625.19;1771875;81;21043;-83
2022/02/14 10:54:04;;;;;;;24.23;10.53;;;;;;;5.07;54.62;99622.67;1756707;81;21054;-80
2022/02/14 10:56:39;;;;;;;21.42;10.40;;;;;;;5.19;53.71;99615.44;1768346;79;21095;-82
2022/02/14 10:59:16;;;;;;;18.17;9.73;;;;;;;5.34;54.52;99614.23;1762917;81;21046;-80
2022/02/14 11:01:41;;;;;;;23.73;9.85;;;;;;;5.50;51.93;99610.00;1777378;80;21022;-82
2022/02/14 11:04:08;;;;;;;17.40;8.95;;;;;;;5.65;52.75;99599.29;1780998;80;21015;-81
2022/02/14 11:06:37;;;;;;;21.57;9.48;;;;;;;5.85;53.92;99606.67;1767703;81;20987;-81
2022/02/14 11:09:04;;;;;;;22.07;8.88;;;;;;;6.03;52.97;99605.88;1762468;80;20959;-81
2022/02/14 11:11:36;;;;;;;17.02;7.87;;;;;;;6.17;52.47;99588.68;1776800;80;20951;-79
2022/02/14 11:14:04;;;;;;;18.00;7.80;;;;;;;6.30;52.37;99587.39;1770747;81;21413;-80
2022/02/14 11:16:36;;;;;;;16.97;8.40;;;;;;;6.45;52.80;99585.25;1775482;81;21026;-81
2022/02/14 11:19:05;;;;;;;22.85;9.68;;;;;;;6.64;51.79;99580.91;1771499;81;20993;-80
2022/02/14 11:21:33;;;;;;;20.75;10.13;;;;;;;6.86;51.13;99573.97;1777597;80;21077;-80
2022/02/14 11:24:05;;;;;;;21.40;9.95;;;;;;;7.07;50.51;99575.66;1780024;81;20989;-81
2022/02/14 11:27:02;;;;;;;19.62;9.95;;;;;;;7.24;49.84;99568.70;1769182;79;21106;-86